createdAt,value
2024-02-24T00:00:27.901Z,24.6
2024-02-24T00:05:53.698Z,24.1
2024-02-24T00:11:32.343Z,28.3
2024-02-24T00:17:11.505Z,25.2
2024-02-24T00:22:51.354Z,24.2
2024-02-24T00:28:30.627Z,27.3
2024-02-24T00:34:09.734Z,25.8
2024-02-24T00:39:33.465Z,24.4
2024-02-24T00:45:12.172Z,25.6
2024-02-24T00:50:51.459Z,27
2024-02-24T00:56:14.938Z,24.8
2024-02-24T01:01:53.783Z,24
2024-02-24T01:07:33.018Z,27.7
2024-02-24T01:13:12.133Z,25.4
2024-02-24T01:18:35.890Z,24.3
2024-02-24T01:24:15.201Z,25.3
2024-02-24T01:29:53.715Z,27.5
2024-02-24T01:35:32.884Z,24.9
2024-02-24T01:41:11.443Z,24.1
2024-02-24T01:46:49.695Z,27
2024-02-24T01:52:29.238Z,26.1
2024-02-24T01:58:07.674Z,24.4
2024-02-24T02:03:31.357Z,24.4
2024-02-24T02:08:55.268Z,28.1
2024-02-24T02:14:35.432Z,25.3
2024-02-24T02:19:43.413Z,24.3
2024-02-24T02:24:51.650Z,25.9
2024-02-24T02:30:30.114Z,27.2
2024-02-24T02:36:11.465Z,24.8
2024-02-24T02:41:49.820Z,23.9
2024-02-24T02:47:36.766Z,27
2024-02-24T02:53:16.412Z,25.9
2024-02-24T02:58:55.583Z,24.4
2024-02-24T03:04:19.377Z,23.7
2024-02-24T03:09:30.749Z,27.5
2024-02-24T03:14:54.587Z,25.7
2024-02-24T03:20:18.352Z,24.4
2024-02-24T03:25:56.780Z,23.8
2024-02-24T03:31:35.547Z,27.6
2024-02-24T03:37:15.029Z,25.5
2024-02-24T03:42:53.569Z,24.2
2024-02-24T03:48:01.640Z,24.9
2024-02-24T03:53:41.066Z,27.9
2024-02-24T03:59:20.038Z,25
2024-02-24T04:04:58.653Z,24.1
2024-02-24T04:10:38.251Z,25.5
2024-02-24T04:16:17.626Z,27.1
2024-02-24T04:21:57.172Z,24.6
2024-02-24T04:27:35.723Z,23.8
2024-02-24T04:33:14.528Z,26.1
2024-02-24T04:38:54.216Z,26
2024-02-24T04:44:17.440Z,24.2
2024-02-24T04:49:41.590Z,23.6
2024-02-24T04:55:04.720Z,26.5
2024-02-24T05:00:27.954Z,25.8
2024-02-24T05:05:51.337Z,24.1
2024-02-24T05:11:15.401Z,23.5
2024-02-24T05:16:38.682Z,26.3
2024-02-24T05:21:47.602Z,25.9
2024-02-24T05:27:13.190Z,24.4
2024-02-24T05:32:36.366Z,23.6
2024-02-24T05:38:04.619Z,26.1
2024-02-24T05:43:29.446Z,24.4
2024-02-24T05:48:53.087Z,23.8
2024-02-24T05:54:34.724Z,23.3
2024-02-24T06:00:13.011Z,22.9
2024-02-24T06:05:52.272Z,22.8
2024-02-24T06:11:31.799Z,22.4
2024-02-24T06:17:10.304Z,22.2
2024-02-24T06:22:52.571Z,21.8
2024-02-24T06:28:15.275Z,21.4
2024-02-24T06:33:54.284Z,21.4
2024-02-24T06:39:33.557Z,21.2
2024-02-24T06:45:23.514Z,21
2024-02-24T06:51:19.256Z,24.9
2024-02-24T06:56:42.060Z,25
2024-02-24T07:02:23.660Z,23.7
2024-02-24T07:08:03.043Z,23.1
2024-02-24T07:13:43.158Z,22.8
2024-02-24T07:19:22.205Z,22.4
2024-02-24T07:25:02.264Z,22.3
2024-02-24T07:30:44.101Z,21.9
2024-02-24T07:36:09.955Z,21.7
2024-02-24T07:41:35.055Z,21.4
2024-02-24T07:46:58.109Z,21.2
2024-02-24T07:52:37.694Z,21.1
2024-02-24T07:58:16.075Z,22.9
2024-02-24T08:03:56.272Z,26.5
2024-02-24T08:09:35.859Z,24
2024-02-24T08:15:00.755Z,23.2
2024-02-24T08:20:24.967Z,22.8
2024-02-24T08:26:03.402Z,22.4
2024-02-24T08:31:41.748Z,22.1
2024-02-24T08:37:21.997Z,21.9
2024-02-24T08:42:45.435Z,21.6
2024-02-24T08:48:08.480Z,21.5
2024-02-24T08:54:01.441Z,21.2
2024-02-24T08:59:39.967Z,21
2024-02-24T09:05:20.871Z,23.6
2024-02-24T09:11:00.842Z,26.1
2024-02-24T09:16:39.901Z,23.9
2024-02-24T09:22:03.976Z,23.2
2024-02-24T09:27:42.945Z,22.8
2024-02-24T09:33:21.880Z,22.5
2024-02-24T09:39:01.478Z,22.1
2024-02-24T09:44:24.630Z,21.8
2024-02-24T09:50:04.119Z,21.6
2024-02-24T09:55:44.907Z,21.4
2024-02-24T10:01:08.007Z,21.3
2024-02-24T10:06:47.582Z,21
2024-02-24T10:12:15.504Z,24.9
2024-02-24T10:17:38.721Z,25.5
2024-02-24T10:22:47.213Z,23.8
2024-02-24T10:28:28.221Z,23.1
2024-02-24T10:34:11.691Z,22.8
2024-02-24T10:40:35.206Z,22.5
2024-02-24T10:46:14.627Z,21.9
2024-02-24T10:51:55.426Z,21.8
2024-02-24T10:57:18.568Z,21.4
2024-02-24T11:02:57.913Z,21.3
2024-02-24T11:14:12.587Z,20.9
2024-02-24T11:19:56.440Z,23.4
2024-02-24T11:25:19.442Z,26.5
2024-02-24T11:30:58.275Z,24.1
2024-02-24T11:36:38.384Z,23.3
2024-02-24T11:42:17.779Z,22.9
2024-02-24T11:47:56.655Z,22.4
2024-02-24T11:53:39.659Z,22.1
2024-02-24T11:59:18.523Z,21.9
2024-02-24T12:04:57.665Z,21.6
2024-02-24T12:10:09.334Z,21.4
2024-02-24T12:15:47.662Z,21.3
2024-02-24T12:21:28.689Z,21
2024-02-24T12:27:07.198Z,20.9
2024-02-24T12:32:45.803Z,25.8
2024-02-24T12:38:25.387Z,24.9
2024-02-24T12:44:04.512Z,23.6
2024-02-24T12:49:53.211Z,23
2024-02-24T12:55:32.112Z,22.6
2024-02-24T13:01:13.675Z,22.3
2024-02-24T13:06:53.094Z,22.1
2024-02-24T13:12:33.044Z,21.8
2024-02-24T13:18:12.013Z,21.6
2024-02-24T13:23:35.595Z,21.3
2024-02-24T13:34:41.496Z,20.9
2024-02-24T13:40:19.906Z,22.9
2024-02-24T13:45:58.443Z,27.1
2024-02-24T13:51:38.855Z,24.2
2024-02-24T13:57:17.611Z,23.3
2024-02-24T14:02:57.182Z,22.8
2024-02-24T14:08:37.885Z,22.4
2024-02-24T14:14:19.992Z,22.1
2024-02-24T14:20:03.267Z,21.9
2024-02-24T14:25:53.981Z,21.6
2024-02-24T14:31:45.630Z,21.4
2024-02-24T14:37:28.299Z,21.2
2024-02-24T14:43:07.367Z,20.9
2024-02-24T14:48:46.783Z,20.8
2024-02-24T14:54:25.846Z,25.3
2024-02-24T14:59:35.301Z,25.3
2024-02-24T15:05:25.156Z,23.6
2024-02-24T15:11:04.825Z,23.1
2024-02-24T15:16:51.084Z,22.7
2024-02-24T15:22:16.579Z,22.3
2024-02-24T15:28:00.061Z,22.1
2024-02-24T15:33:39.434Z,21.8
2024-02-24T15:39:18.501Z,21.5
2024-02-24T15:44:56.430Z,21.3
2024-02-24T15:50:37.069Z,21.1
2024-02-24T15:56:16.017Z,20.9
2024-02-24T16:01:54.875Z,21.9
2024-02-24T16:07:37.094Z,26.4
2024-02-24T16:13:18.191Z,24.4
2024-02-24T16:18:57.739Z,23.3
2024-02-24T16:24:39.197Z,22.9
2024-02-24T16:30:02.169Z,22.5
2024-02-24T16:35:45.837Z,22.2
2024-02-24T16:41:24.633Z,21.9
2024-02-24T16:47:03.589Z,21.7
2024-02-24T16:52:44.336Z,21.4
2024-02-24T16:58:08.261Z,21.2
2024-02-24T17:03:47.337Z,21
2024-02-24T17:09:11.401Z,20.8
2024-02-24T17:14:35.767Z,21.7
2024-02-24T17:20:07.176Z,26
2024-02-24T17:25:46.782Z,24.8
2024-02-24T17:31:25.784Z,23.4
2024-02-24T17:36:50.197Z,22.9
2024-02-24T17:42:29.038Z,22.6
2024-02-24T17:48:07.991Z,22.3
2024-02-24T17:53:47.128Z,21.9
2024-02-24T17:59:21.912Z,21.6
2024-02-24T18:05:01.513Z,21.4
2024-02-24T18:15:50.104Z,21
2024-02-24T18:21:15.427Z,20.8
2024-02-24T18:32:04.717Z,25.6
2024-02-24T18:37:44.706Z,24.4
2024-02-24T18:43:08.859Z,23
2024-02-24T18:48:51.286Z,22.6
2024-02-24T18:54:30.812Z,22.1
2024-02-24T19:00:09.436Z,21.8
2024-02-24T19:05:33.187Z,21.6
2024-02-24T19:10:56.379Z,21.4
2024-02-24T19:16:39.007Z,21.1
2024-02-24T19:22:04.634Z,20.9
2024-02-24T19:27:45.644Z,20.7
2024-02-24T19:33:24.492Z,20.6
2024-02-24T19:39:10.822Z,20.5
2024-02-24T19:45:01.671Z,20.4
2024-02-24T19:50:41.449Z,25.1
2024-02-24T19:56:20.120Z,25
2024-02-24T20:02:06.950Z,23.3
2024-02-24T20:07:47.392Z,22.7
2024-02-24T20:13:26.462Z,22.3
2024-02-24T20:18:49.992Z,22.1
2024-02-24T20:24:29.287Z,21.9
2024-02-24T20:30:08.760Z,21.6
2024-02-24T20:35:57.469Z,21.4
2024-02-24T20:41:20.716Z,21.3
2024-02-24T20:46:59.614Z,21.1
2024-02-24T20:52:23.530Z,20.9
2024-02-24T20:58:02.339Z,21.8
2024-02-24T21:03:42.797Z,26.2
2024-02-24T21:09:24.284Z,28.4
2024-02-24T21:15:03.553Z,25.1
2024-02-24T21:20:46.777Z,28.1
2024-02-24T21:26:25.556Z,25.3
2024-02-24T21:32:07.746Z,23.3
2024-02-24T21:37:48.634Z,27.5
2024-02-24T21:43:26.657Z,25.6
2024-02-24T21:49:06.613Z,23.9
2024-02-24T21:54:45.803Z,25.9
2024-02-24T22:00:24.888Z,27.4
2024-02-24T22:06:04.577Z,24.4
2024-02-24T22:11:44.250Z,23.4
2024-02-24T22:17:22.958Z,26.3
2024-02-24T22:23:05.614Z,26.9
2024-02-24T22:28:47.356Z,24.3
2024-02-24T22:34:41.098Z,23.6
2024-02-24T22:40:06.070Z,25.5
2024-02-24T22:45:44.999Z,28.4
2024-02-24T22:51:25.266Z,24.8
2024-02-24T22:56:52.502Z,23.7
2024-02-24T23:02:15.835Z,23.1
2024-02-24T23:07:39.845Z,26.8
2024-02-24T23:13:13.840Z,26.6
2024-02-24T23:18:37.826Z,24.2
2024-02-24T23:24:17.162Z,23.4
2024-02-24T23:29:55.805Z,23
2024-02-24T23:35:37.044Z,27
2024-02-24T23:41:16.116Z,26.1
2024-02-24T23:46:59.396Z,24
2024-02-24T23:52:38.827Z,23.4
2024-02-24T23:58:17.300Z,23
